createdAt,value
2022-07-29T00:01:01.690Z,18.25
2022-07-29T00:03:28.151Z,18.23
2022-07-29T00:05:54.563Z,18.17
2022-07-29T00:08:21.301Z,18.19
2022-07-29T00:10:48.175Z,18.14
2022-07-29T00:13:16.948Z,18.22
2022-07-29T00:15:43.358Z,18.23
2022-07-29T00:18:09.865Z,18.32
2022-07-29T00:20:36.308Z,18.27
2022-07-29T00:23:02.742Z,18.15
2022-07-29T00:25:29.627Z,18.04
2022-07-29T00:27:57.335Z,18.03
2022-07-29T00:30:24.067Z,18.02
2022-07-29T00:32:50.708Z,18.08
2022-07-29T00:35:17.090Z,18.15
2022-07-29T00:37:45.916Z,18.16
2022-07-29T00:40:12.565Z,18.21
2022-07-29T00:42:43.653Z,18.23
2022-07-29T00:45:11.264Z,18.22
2022-07-29T00:47:43.543Z,18.15
2022-07-29T00:50:13.119Z,18.18
2022-07-29T00:52:41.635Z,18.13
2022-07-29T00:55:12.199Z,18.07
2022-07-29T00:57:38.876Z,18.02
2022-07-29T01:00:07.405Z,18.01
2022-07-29T01:02:33.905Z,17.99
2022-07-29T01:05:01.940Z,17.94
2022-07-29T01:07:29.847Z,17.94
2022-07-29T01:09:57.757Z,17.92
2022-07-29T01:12:28.055Z,17.92
2022-07-29T01:14:56.342Z,17.90
2022-07-29T01:17:29.939Z,17.86
2022-07-29T01:20:31.327Z,17.91
2022-07-29T01:23:19.688Z,17.87
2022-07-29T01:26:04.656Z,17.79
2022-07-29T01:28:50.527Z,17.76
2022-07-29T01:31:22.373Z,17.70
2022-07-29T01:33:58.931Z,17.66
2022-07-29T01:36:41.526Z,17.69
2022-07-29T01:39:15.166Z,17.70
2022-07-29T01:41:51.725Z,17.66
2022-07-29T01:44:23.652Z,17.64
2022-07-29T01:47:00.052Z,17.68
2022-07-29T01:49:34.765Z,17.62
2022-07-29T01:52:08.513Z,17.57
2022-07-29T01:54:55.528Z,17.55
2022-07-29T01:57:29.398Z,17.54
2022-07-29T01:59:58.141Z,17.53
2022-07-29T02:02:25.862Z,17.49
2022-07-29T02:04:54.619Z,17.46
2022-07-29T02:07:24.870Z,17.46
2022-07-29T02:09:53.501Z,17.41
2022-07-29T02:12:21.671Z,17.37
2022-07-29T02:14:52.115Z,17.38
2022-07-29T02:17:24.683Z,17.36
2022-07-29T02:19:52.769Z,17.33
2022-07-29T02:22:20.589Z,17.28
2022-07-29T02:24:48.762Z,17.30
2022-07-29T02:27:16.105Z,17.25
2022-07-29T02:29:43.384Z,17.29
2022-07-29T02:32:13.708Z,17.24
2022-07-29T02:34:42.611Z,17.23
2022-07-29T02:37:11.195Z,17.14
2022-07-29T02:39:39.913Z,17.20
2022-07-29T02:42:09.400Z,17.22
2022-07-29T02:44:36.037Z,17.28
2022-07-29T02:47:20.194Z,17.30
2022-07-29T02:50:01.220Z,17.13
2022-07-29T02:52:39.765Z,17.09
2022-07-29T02:55:14.473Z,17.09
2022-07-29T02:57:53.866Z,16.91
2022-07-29T03:00:24.651Z,16.89
2022-07-29T03:02:55.187Z,16.83
2022-07-29T03:05:21.833Z,16.80
2022-07-29T03:07:59.489Z,16.77
2022-07-29T03:10:27.126Z,16.82
2022-07-29T03:12:56.092Z,16.80
2022-07-29T03:15:23.367Z,16.79
2022-07-29T03:17:53.520Z,16.70
2022-07-29T03:20:20.139Z,16.67
2022-07-29T03:22:47.133Z,16.63
2022-07-29T03:25:15.275Z,16.60
2022-07-29T03:27:41.916Z,16.63
2022-07-29T03:30:09.825Z,16.63
2022-07-29T03:32:36.805Z,16.62
2022-07-29T03:35:05.033Z,16.59
2022-07-29T03:37:31.598Z,16.53
2022-07-29T03:39:59.007Z,16.54
2022-07-29T03:42:34.038Z,16.60
2022-07-29T03:45:04.396Z,16.56
2022-07-29T03:47:49.669Z,16.53
2022-07-29T03:50:18.041Z,16.50
2022-07-29T03:52:45.267Z,16.51
2022-07-29T03:55:12.881Z,16.51
2022-07-29T03:57:41.498Z,16.53
2022-07-29T04:00:09.401Z,16.56
2022-07-29T04:02:37.588Z,16.52
2022-07-29T04:05:04.295Z,16.57
2022-07-29T04:07:30.772Z,16.56
2022-07-29T04:09:57.269Z,16.60
2022-07-29T04:12:23.811Z,16.59
2022-07-29T04:14:50.196Z,16.65
2022-07-29T04:17:17.169Z,16.65
2022-07-29T04:19:43.475Z,16.67
2022-07-29T04:22:10.373Z,16.72
2022-07-29T04:24:36.753Z,16.75
2022-07-29T04:27:04.400Z,16.70
2022-07-29T04:29:30.734Z,16.75
2022-07-29T04:31:57.430Z,16.74
2022-07-29T04:34:28.165Z,16.65
2022-07-29T04:36:54.907Z,16.67
2022-07-29T04:39:23.189Z,16.72
2022-07-29T04:41:50.277Z,16.73
2022-07-29T04:44:17.053Z,16.77
2022-07-29T04:46:44.276Z,16.88
2022-07-29T04:49:10.872Z,16.92
2022-07-29T04:51:37.548Z,16.92
2022-07-29T04:54:04.162Z,16.87
2022-07-29T04:56:30.729Z,16.76
2022-07-29T04:58:57.457Z,16.73
2022-07-29T05:01:24.198Z,16.75
2022-07-29T05:03:53.988Z,16.83
2022-07-29T05:06:23.522Z,16.90
2022-07-29T05:08:50.020Z,16.88
2022-07-29T05:11:21.344Z,16.93
2022-07-29T05:13:50.982Z,17.22
2022-07-29T05:16:17.535Z,17.62
2022-07-29T05:18:44.474Z,17.93
2022-07-29T05:21:10.929Z,18.08
2022-07-29T05:23:37.303Z,17.77
2022-07-29T05:26:03.882Z,17.68
2022-07-29T05:28:34.305Z,17.93
2022-07-29T05:31:00.605Z,18.42
2022-07-29T05:33:35.488Z,18.60
2022-07-29T05:36:06.563Z,18.66
2022-07-29T05:38:33.597Z,18.42
2022-07-29T05:41:00.213Z,18.10
2022-07-29T05:43:29.009Z,18.07
2022-07-29T05:45:55.788Z,18.32
2022-07-29T05:48:22.383Z,18.40
2022-07-29T05:50:48.798Z,18.65
2022-07-29T05:53:19.576Z,18.86
2022-07-29T05:55:48.288Z,18.99
2022-07-29T05:58:15.275Z,19.00
2022-07-29T06:00:41.856Z,19.18
2022-07-29T06:03:08.579Z,18.96
2022-07-29T06:05:34.993Z,18.92
2022-07-29T06:08:01.868Z,18.81
2022-07-29T06:10:28.255Z,19.23
2022-07-29T06:12:57.496Z,19.56
2022-07-29T06:15:23.862Z,19.36
2022-07-29T06:18:00.566Z,19.53
2022-07-29T06:20:32.555Z,19.27
2022-07-29T06:23:00.083Z,19.16
2022-07-29T06:25:27.614Z,19.55
2022-07-29T06:27:54.160Z,19.81
2022-07-29T06:30:20.791Z,19.60
2022-07-29T06:32:50.479Z,19.78
2022-07-29T06:35:38.453Z,19.72
2022-07-29T06:38:09.597Z,19.94
2022-07-29T06:40:56.556Z,20.29
2022-07-29T06:43:22.979Z,20.57
2022-07-29T06:45:52.821Z,20.84
2022-07-29T06:48:19.265Z,20.70
2022-07-29T06:50:45.722Z,21.02
2022-07-29T06:53:12.147Z,21.30
2022-07-29T06:55:38.574Z,21.31
2022-07-29T06:58:05.073Z,21.40
2022-07-29T07:00:31.569Z,21.38
2022-07-29T07:02:58.025Z,21.55
2022-07-29T07:05:25.528Z,21.27
2022-07-29T07:07:52.039Z,21.25
2022-07-29T07:10:21.801Z,21.30
2022-07-29T07:12:50.686Z,21.34
2022-07-29T07:15:17.109Z,21.70
2022-07-29T07:17:46.663Z,22.00
2022-07-29T07:20:13.283Z,21.67
2022-07-29T07:22:39.934Z,21.48
2022-07-29T07:25:06.959Z,21.77
2022-07-29T07:27:33.468Z,21.32
2022-07-29T07:30:02.283Z,21.59
2022-07-29T07:32:28.999Z,22.19
2022-07-29T07:34:55.435Z,22.22
2022-07-29T07:37:21.793Z,21.96
2022-07-29T07:39:48.182Z,22.42
2022-07-29T07:42:14.582Z,22.79
2022-07-29T07:45:03.896Z,22.54
2022-07-29T07:47:28.872Z,22.08
2022-07-29T07:49:55.523Z,22.08
2022-07-29T07:52:23.335Z,22.31
2022-07-29T07:54:50.281Z,22.94
2022-07-29T07:57:17.401Z,23.50
2022-07-29T07:59:44.074Z,23.97
2022-07-29T08:02:10.762Z,23.64
2022-07-29T08:04:37.555Z,24.08
2022-07-29T08:07:04.186Z,24.03
2022-07-29T08:09:31.035Z,24.10
2022-07-29T08:11:58.674Z,24.52
2022-07-29T08:14:25.192Z,23.64
2022-07-29T08:16:56.568Z,24.41
2022-07-29T08:19:23.201Z,24.49
2022-07-29T08:21:51.165Z,24.77
2022-07-29T08:24:17.713Z,23.82
2022-07-29T08:26:44.555Z,23.64
2022-07-29T08:29:11.168Z,23.71
2022-07-29T08:31:38.619Z,24.01
2022-07-29T08:34:05.822Z,24.57
2022-07-29T08:36:34.206Z,24.68
2022-07-29T08:39:01.138Z,24.76
2022-07-29T08:41:28.109Z,24.61
2022-07-29T08:43:54.536Z,24.09
2022-07-29T08:46:22.287Z,24.29
2022-07-29T08:48:49.557Z,24.64
2022-07-29T08:51:18.747Z,25.04
2022-07-29T08:53:47.300Z,25.35
2022-07-29T08:56:14.607Z,25.88
2022-07-29T08:58:42.564Z,26.04
2022-07-29T09:01:17.645Z,25.41
2022-07-29T09:03:47.209Z,25.22
2022-07-29T09:06:16.034Z,25.30
2022-07-29T09:08:42.904Z,25.78
2022-07-29T09:11:10.390Z,26.00
2022-07-29T09:13:36.958Z,25.82
2022-07-29T09:16:08.884Z,26.53
2022-07-29T09:18:38.664Z,25.43
2022-07-29T09:21:06.973Z,25.75
2022-07-29T09:23:33.559Z,26.20
2022-07-29T09:26:07.161Z,25.95
2022-07-29T09:28:33.696Z,26.42
2022-07-29T09:31:00.165Z,26.10
2022-07-29T09:33:34.883Z,25.68
2022-07-29T09:36:06.911Z,26.22
2022-07-29T09:38:34.812Z,26.32
2022-07-29T09:41:06.719Z,26.38
2022-07-29T09:43:34.647Z,26.35
2022-07-29T09:46:28.191Z,26.85
2022-07-29T09:49:09.490Z,27.25
2022-07-29T09:51:38.048Z,27.70
2022-07-29T09:54:24.289Z,27.51
2022-07-29T09:56:51.732Z,27.28
2022-07-29T09:59:18.645Z,27.66
2022-07-29T10:01:45.520Z,27.06
2022-07-29T10:04:12.105Z,27.12
2022-07-29T10:07:04.410Z,27.32
2022-07-29T10:09:32.597Z,27.45
2022-07-29T10:12:09.838Z,26.87
2022-07-29T10:14:37.080Z,27.26
2022-07-29T10:17:04.901Z,27.53
2022-07-29T10:19:35.172Z,27.84
2022-07-29T10:22:04.989Z,27.39
2022-07-29T10:24:32.579Z,27.96
2022-07-29T10:27:02.480Z,28.12
2022-07-29T10:29:30.079Z,27.70
2022-07-29T10:32:31.026Z,27.85
2022-07-29T10:35:36.716Z,28.62
2022-07-29T10:38:45.910Z,29.26
2022-07-29T10:41:43.641Z,29.75
2022-07-29T10:44:19.097Z,28.93
2022-07-29T10:46:46.940Z,28.43
2022-07-29T10:49:15.399Z,27.74
2022-07-29T10:51:51.467Z,28.23
2022-07-29T10:54:19.698Z,28.52
2022-07-29T10:56:46.755Z,28.90
2022-07-29T10:59:19.280Z,28.31
2022-07-29T11:01:53.633Z,27.49
2022-07-29T11:04:43.967Z,27.62
2022-07-29T11:07:10.860Z,27.76
2022-07-29T11:09:38.695Z,27.85
2022-07-29T11:12:38.774Z,27.61
2022-07-29T11:15:08.804Z,27.85
2022-07-29T11:17:53.300Z,27.67
2022-07-29T11:20:38.544Z,27.45
2022-07-29T11:23:27.722Z,26.64
2022-07-29T11:26:12.824Z,26.36
2022-07-29T11:28:51.561Z,26.16
2022-07-29T11:31:44.265Z,26.10
2022-07-29T11:34:20.893Z,25.95
2022-07-29T11:37:09.542Z,25.66
2022-07-29T11:39:38.933Z,24.97
2022-07-29T11:42:17.300Z,23.73
2022-07-29T11:45:08.509Z,22.65
2022-07-29T11:47:56.153Z,21.26
2022-07-29T11:50:37.483Z,19.40
2022-07-29T11:53:14.411Z,17.82
2022-07-29T11:55:50.918Z,17.47
2022-07-29T11:58:26.217Z,17.93
2022-07-29T12:00:55.680Z,17.80
2022-07-29T12:03:33.613Z,17.72
2022-07-29T12:06:11.971Z,17.83
2022-07-29T12:08:43.805Z,18.03
2022-07-29T12:11:23.775Z,17.72
2022-07-29T12:13:51.918Z,17.74
2022-07-29T12:16:26.114Z,17.81
2022-07-29T12:19:00.835Z,18.01
2022-07-29T12:21:57.023Z,18.10
2022-07-29T12:24:27.401Z,18.43
2022-07-29T12:27:31.301Z,18.59
2022-07-29T12:33:15.708Z,19.22
2022-07-29T12:35:58.103Z,19.18
2022-07-29T12:38:30.632Z,18.93
2022-07-29T12:40:57.462Z,19.16
2022-07-29T12:43:26.087Z,19.08
2022-07-29T12:45:58.957Z,19.08
2022-07-29T12:48:39.120Z,18.86
2022-07-29T12:51:07.852Z,18.97
2022-07-29T12:53:36.096Z,19.02
2022-07-29T12:56:42.412Z,18.76
2022-07-29T12:59:34.650Z,18.70
2022-07-29T13:02:05.113Z,18.87
2022-07-29T13:04:33.740Z,18.93
2022-07-29T13:07:10.326Z,18.73
2022-07-29T13:09:43.129Z,18.88
2022-07-29T13:12:11.878Z,18.96
2022-07-29T13:14:39.584Z,18.95
2022-07-29T13:17:10.271Z,18.82
2022-07-29T13:20:09.045Z,18.90
2022-07-29T13:22:36.185Z,19.06
2022-07-29T13:25:03.114Z,18.93
2022-07-29T13:27:34.212Z,18.79
2022-07-29T13:30:04.779Z,18.61
2022-07-29T13:32:32.620Z,18.59
2022-07-29T13:35:05.479Z,18.69
2022-07-29T13:37:33.328Z,18.74
2022-07-29T13:40:00.458Z,18.67
2022-07-29T13:42:32.106Z,18.82
2022-07-29T13:44:59.631Z,18.73
2022-07-29T13:47:32.849Z,18.83
2022-07-29T13:50:01.018Z,18.78
2022-07-29T13:52:28.446Z,18.72
2022-07-29T13:54:54.927Z,18.81
2022-07-29T13:57:22.877Z,19.06
2022-07-29T13:59:53.540Z,19.18
2022-07-29T14:02:30.311Z,19.21
2022-07-29T14:04:56.780Z,19.35
2022-07-29T14:07:24.955Z,19.22
2022-07-29T14:09:51.732Z,19.04
2022-07-29T14:12:19.639Z,19.08
2022-07-29T14:14:49.070Z,19.30
2022-07-29T14:17:16.853Z,19.44
2022-07-29T14:19:44.286Z,19.35
2022-07-29T14:22:11.265Z,19.57
2022-07-29T14:24:38.475Z,19.64
2022-07-29T14:27:11.625Z,19.74
2022-07-29T14:29:38.986Z,19.72
2022-07-29T14:32:23.646Z,19.98
2022-07-29T14:34:50.132Z,19.98
2022-07-29T14:37:20.048Z,20.15
2022-07-29T14:39:48.247Z,19.83
2022-07-29T14:42:16.602Z,20.01
2022-07-29T14:44:46.104Z,20.18
2022-07-29T14:47:15.485Z,20.30
2022-07-29T14:49:41.874Z,20.19
2022-07-29T14:52:08.353Z,20.14
2022-07-29T14:54:35.955Z,20.07
2022-07-29T14:57:07.533Z,20.05
2022-07-29T14:59:33.961Z,20.22
2022-07-29T15:02:00.958Z,20.05
2022-07-29T15:04:27.770Z,20.15
2022-07-29T15:06:54.711Z,20.25
2022-07-29T15:09:23.944Z,20.38
2022-07-29T15:11:50.643Z,20.35
2022-07-29T15:14:18.817Z,20.38
2022-07-29T15:16:47.979Z,20.33
2022-07-29T15:19:15.042Z,20.29
2022-07-29T15:21:48.590Z,20.42
2022-07-29T15:24:16.827Z,20.49
2022-07-29T15:26:47.631Z,20.61
2022-07-29T15:29:15.294Z,20.60
2022-07-29T15:31:42.056Z,20.59
2022-07-29T15:34:08.653Z,20.49
2022-07-29T15:36:53.753Z,20.55
2022-07-29T15:39:23.555Z,20.71
2022-07-29T15:41:53.180Z,20.81
2022-07-29T15:44:20.946Z,20.90
2022-07-29T15:46:48.330Z,20.93
2022-07-29T15:49:16.603Z,20.98
2022-07-29T15:51:43.471Z,21.04
2022-07-29T15:54:09.916Z,21.12
2022-07-29T15:56:36.524Z,21.14
2022-07-29T15:59:04.119Z,21.31
2022-07-29T16:01:30.646Z,21.18
2022-07-29T16:03:58.680Z,21.18
2022-07-29T16:06:25.095Z,21.19
2022-07-29T16:08:51.594Z,21.31
2022-07-29T16:11:18.359Z,21.37
2022-07-29T16:13:44.752Z,21.39
2022-07-29T16:16:13.086Z,21.56
2022-07-29T16:18:40.729Z,21.71
2022-07-29T16:21:07.178Z,21.76
2022-07-29T16:23:36.761Z,21.97
2022-07-29T16:26:03.338Z,22.13
2022-07-29T16:28:30.399Z,22.25
2022-07-29T16:30:57.314Z,22.05
2022-07-29T16:33:24.589Z,21.88
2022-07-29T16:35:52.114Z,21.96
2022-07-29T16:38:19.045Z,21.88
2022-07-29T16:40:45.807Z,21.73
2022-07-29T16:43:12.244Z,21.74
2022-07-29T16:45:46.239Z,21.79
2022-07-29T16:48:14.385Z,21.92
2022-07-29T16:50:43.365Z,21.89
2022-07-29T16:53:11.041Z,21.84
2022-07-29T16:55:42.296Z,21.60
2022-07-29T16:58:09.581Z,21.65
2022-07-29T17:00:36.037Z,21.64
2022-07-29T17:03:02.969Z,21.63
2022-07-29T17:05:29.476Z,21.57
2022-07-29T17:08:16.076Z,21.51
2022-07-29T17:10:43.818Z,21.44
2022-07-29T17:13:11.297Z,21.35
2022-07-29T17:15:39.145Z,21.24
2022-07-29T17:18:12.581Z,21.19
2022-07-29T17:20:41.345Z,21.14
2022-07-29T17:23:08.591Z,21.05
2022-07-29T17:25:35.225Z,21.05
2022-07-29T17:28:01.757Z,20.97
2022-07-29T17:30:29.405Z,20.95
2022-07-29T17:32:57.078Z,20.92
2022-07-29T17:35:30.891Z,20.89
2022-07-29T17:37:57.615Z,20.91
2022-07-29T17:40:24.408Z,20.81
2022-07-29T17:42:51.533Z,20.72
2022-07-29T17:45:19.256Z,20.70
2022-07-29T17:47:46.324Z,20.68
2022-07-29T17:50:12.799Z,20.58
2022-07-29T17:52:41.743Z,20.54
2022-07-29T17:55:08.742Z,20.50
2022-07-29T17:57:35.456Z,20.42
2022-07-29T18:00:02.151Z,20.37
2022-07-29T18:02:28.765Z,20.30
2022-07-29T18:04:55.547Z,20.38
2022-07-29T18:07:22.951Z,20.50
2022-07-29T18:09:49.683Z,20.55
2022-07-29T18:12:16.338Z,20.82
2022-07-29T18:14:42.733Z,21.01
2022-07-29T18:17:09.398Z,21.07
2022-07-29T18:19:36.403Z,21.27
2022-07-29T18:22:05.181Z,21.36
2022-07-29T18:24:32.669Z,21.33
2022-07-29T18:26:59.556Z,21.28
2022-07-29T18:29:28.213Z,21.31
2022-07-29T18:31:55.241Z,21.34
2022-07-29T18:34:29.220Z,21.30
2022-07-29T18:36:56.242Z,21.27
2022-07-29T18:39:22.984Z,21.12
2022-07-29T18:41:51.428Z,21.03
2022-07-29T18:44:19.501Z,20.92
2022-07-29T18:46:50.202Z,20.81
2022-07-29T18:49:17.176Z,20.80
2022-07-29T18:51:43.612Z,20.78
2022-07-29T18:54:10.170Z,20.74
2022-07-29T18:56:38.256Z,20.77
2022-07-29T18:59:08.979Z,20.66
2022-07-29T19:01:36.422Z,20.58
2022-07-29T19:04:05.134Z,20.44
2022-07-29T19:06:33.729Z,20.19
2022-07-29T19:09:00.205Z,20.16
2022-07-29T19:11:27.137Z,20.03
2022-07-29T19:13:56.855Z,19.94
2022-07-29T19:16:23.487Z,19.86
2022-07-29T19:18:50.369Z,19.72
2022-07-29T19:21:17.385Z,19.65
2022-07-29T19:24:04.175Z,19.51
2022-07-29T19:26:35.028Z,19.36
2022-07-29T19:29:02.690Z,19.32
2022-07-29T19:31:30.106Z,19.26
2022-07-29T19:34:01.084Z,19.20
2022-07-29T19:39:09.718Z,19.22
2022-07-29T19:41:37.767Z,19.21
2022-07-29T19:44:04.725Z,19.19
2022-07-29T19:46:31.245Z,19.19
2022-07-29T19:48:59.420Z,19.15
2022-07-29T19:51:31.490Z,19.16
2022-07-29T19:53:58.255Z,19.12
2022-07-29T19:56:25.938Z,19.13
2022-07-29T19:58:53.853Z,19.15
2022-07-29T20:01:24.254Z,19.08
2022-07-29T20:03:53.721Z,19.07
2022-07-29T20:06:20.485Z,19.04
2022-07-29T20:08:50.032Z,19.03
2022-07-29T20:11:16.725Z,19.04
2022-07-29T20:13:46.670Z,19.06
2022-07-29T20:16:14.204Z,19.05
2022-07-29T20:18:42.728Z,19.01
2022-07-29T20:21:09.442Z,18.92
2022-07-29T20:26:29.200Z,18.86
2022-07-29T20:42:33.576Z,18.56
2022-07-29T20:45:08.282Z,18.53
2022-07-29T20:47:35.739Z,18.49
2022-07-29T20:50:03.351Z,18.49
2022-07-29T20:52:37.722Z,18.41
2022-07-29T20:55:04.745Z,18.35
2022-07-29T21:05:41.477Z,18.17
2022-07-29T21:08:10.236Z,18.11
2022-07-29T21:10:37.259Z,18.05
2022-07-29T21:18:26.330Z,17.99
2022-07-29T21:21:00.776Z,17.98
2022-07-29T21:23:29.250Z,17.94
2022-07-29T21:25:56.970Z,17.93
2022-07-29T21:28:24.243Z,17.89
2022-07-29T21:30:54.719Z,17.80
2022-07-29T21:33:23.904Z,17.74
2022-07-29T21:38:38.576Z,17.71
2022-07-29T21:41:11.282Z,17.62
2022-07-29T21:43:41.916Z,17.63
2022-07-29T21:46:09.144Z,17.58
2022-07-29T21:48:35.775Z,17.55
2022-07-29T21:51:02.777Z,17.54
2022-07-29T21:56:13.066Z,17.54
2022-07-29T21:58:42.281Z,17.52
2022-07-29T22:01:09.032Z,17.47
2022-07-29T22:03:36.508Z,17.47
2022-07-29T22:06:04.981Z,17.48
2022-07-29T22:08:31.688Z,17.45
2022-07-29T22:10:59.248Z,17.45
2022-07-29T22:13:25.779Z,17.41
2022-07-29T22:15:52.812Z,17.43
2022-07-29T22:18:20.785Z,17.43
2022-07-29T22:20:48.795Z,17.40
2022-07-29T22:23:15.446Z,17.38
2022-07-29T22:25:42.169Z,17.38
2022-07-29T22:28:08.646Z,17.40
2022-07-29T22:30:35.034Z,17.43
2022-07-29T22:33:07.352Z,17.49
2022-07-29T22:35:34.547Z,17.45
2022-07-29T22:38:00.967Z,17.43
2022-07-29T22:40:30.631Z,17.40
2022-07-29T22:42:57.985Z,17.35
2022-07-29T22:45:25.827Z,17.29
2022-07-29T22:47:57.890Z,17.29
2022-07-29T22:50:26.115Z,17.22
2022-07-29T22:52:55.419Z,17.18
2022-07-29T22:55:24.351Z,17.11
2022-07-29T22:57:51.053Z,17.05
2022-07-29T23:00:17.836Z,17.01
2022-07-29T23:02:45.814Z,16.96
2022-07-29T23:05:14.443Z,16.92
2022-07-29T23:07:40.961Z,16.84
2022-07-29T23:10:10.042Z,16.85
2022-07-29T23:12:41.593Z,16.86
2022-07-29T23:15:08.150Z,16.83
2022-07-29T23:17:36.575Z,16.83
2022-07-29T23:20:10.068Z,16.80
2022-07-29T23:22:37.379Z,16.78
2022-07-29T23:25:04.828Z,16.77
2022-07-29T23:27:31.325Z,16.74
2022-07-29T23:29:57.930Z,16.76
2022-07-29T23:32:24.458Z,16.74
2022-07-29T23:34:52.386Z,16.67
2022-07-29T23:37:18.912Z,16.63
2022-07-29T23:39:45.874Z,16.59
2022-07-29T23:42:12.477Z,16.60
2022-07-29T23:44:39.139Z,16.56
2022-07-29T23:47:05.888Z,16.58
2022-07-29T23:49:34.457Z,16.53
2022-07-29T23:52:00.819Z,16.46
2022-07-29T23:54:28.733Z,16.45
2022-07-29T23:56:55.608Z,16.40
2022-07-29T23:59:22.044Z,16.47
